sensor_id;sensor_type;location;lat;lon;timestamp;P1;durP1;ratioP1;P2;durP2;ratioP2
12848;SDS011;6493;50.928;7.172;2022-07-30T00:04:48;0.77;;;0.70;;
12848;SDS011;6493;50.928;7.172;2022-07-30T00:09:52;0.63;;;0.63;;
12848;SDS011;6493;50.928;7.172;2022-07-30T00:14:58;0.80;;;0.60;;
12848;SDS011;6493;50.928;7.172;2022-07-30T00:20:04;0.60;;;0.60;;
12848;SDS011;6493;50.928;7.172;2022-07-30T00:25:08;0.60;;;0.60;;
12848;SDS011;6493;50.928;7.172;2022-07-30T00:30:12;0.70;;;0.70;;
12848;SDS011;6493;50.928;7.172;2022-07-30T00:35:18;0.60;;;0.50;;
12848;SDS011;6493;50.928;7.172;2022-07-30T00:40:22;0.60;;;0.60;;
12848;SDS011;6493;50.928;7.172;2022-07-30T00:45:25;0.60;;;0.57;;
12848;SDS011;6493;50.928;7.172;2022-07-30T00:50:31;0.50;;;0.50;;
12848;SDS011;6493;50.928;7.172;2022-07-30T00:55:35;1.47;;;0.80;;
12848;SDS011;6493;50.928;7.172;2022-07-30T01:00:38;0.57;;;0.57;;
12848;SDS011;6493;50.928;7.172;2022-07-30T01:05:44;1.10;;;0.63;;
12848;SDS011;6493;50.928;7.172;2022-07-30T01:10:48;1.43;;;0.57;;
12848;SDS011;6493;50.928;7.172;2022-07-30T01:15:51;0.63;;;0.63;;
12848;SDS011;6493;50.928;7.172;2022-07-30T01:20:58;1.27;;;0.67;;
12848;SDS011;6493;50.928;7.172;2022-07-30T01:26:09;0.60;;;0.60;;
12848;SDS011;6493;50.928;7.172;2022-07-30T01:31:15;0.97;;;0.70;;
12848;SDS011;6493;50.928;7.172;2022-07-30T01:36:20;0.67;;;0.60;;
12848;SDS011;6493;50.928;7.172;2022-07-30T01:41:27;1.47;;;0.70;;
12848;SDS011;6493;50.928;7.172;2022-07-30T01:46:32;0.70;;;0.70;;
12848;SDS011;6493;50.928;7.172;2022-07-30T01:51:37;0.70;;;0.70;;
12848;SDS011;6493;50.928;7.172;2022-07-30T01:56:43;1.10;;;0.70;;
12848;SDS011;6493;50.928;7.172;2022-07-30T02:01:49;0.70;;;0.70;;
12848;SDS011;6493;50.928;7.172;2022-07-30T02:06:55;0.63;;;0.60;;
12848;SDS011;6493;50.928;7.172;2022-07-30T02:12:07;0.63;;;0.63;;
12848;SDS011;6493;50.928;7.172;2022-07-30T02:17:36;0.60;;;0.60;;
12848;SDS011;6493;50.928;7.172;2022-07-30T02:22:46;0.60;;;0.60;;
12848;SDS011;6493;50.928;7.172;2022-07-30T02:28:01;0.93;;;0.80;;
12848;SDS011;6493;50.928;7.172;2022-07-30T02:33:07;0.90;;;0.80;;
12848;SDS011;6493;50.928;7.172;2022-07-30T02:38:14;0.80;;;0.80;;
12848;SDS011;6493;50.928;7.172;2022-07-30T02:43:20;1.20;;;0.73;;
12848;SDS011;6493;50.928;7.172;2022-07-30T02:48:26;0.77;;;0.70;;
12848;SDS011;6493;50.928;7.172;2022-07-30T02:53:37;1.20;;;0.80;;
12848;SDS011;6493;50.928;7.172;2022-07-30T02:58:43;0.67;;;0.60;;
12848;SDS011;6493;50.928;7.172;2022-07-30T03:03:47;0.80;;;0.80;;
12848;SDS011;6493;50.928;7.172;2022-07-30T03:08:54;0.63;;;0.63;;
12848;SDS011;6493;50.928;7.172;2022-07-30T03:14:00;0.83;;;0.80;;
12848;SDS011;6493;50.928;7.172;2022-07-30T03:19:04;0.93;;;0.67;;
12848;SDS011;6493;50.928;7.172;2022-07-30T03:24:12;0.60;;;0.60;;
12848;SDS011;6493;50.928;7.172;2022-07-30T03:29:20;0.80;;;0.80;;
12848;SDS011;6493;50.928;7.172;2022-07-30T03:34:26;1.20;;;0.63;;
12848;SDS011;6493;50.928;7.172;2022-07-30T03:39:31;0.97;;;0.80;;
12848;SDS011;6493;50.928;7.172;2022-07-30T03:44:38;0.63;;;0.63;;
12848;SDS011;6493;50.928;7.172;2022-07-30T03:49:43;1.63;;;0.90;;
12848;SDS011;6493;50.928;7.172;2022-07-30T03:54:47;1.03;;;0.80;;
12848;SDS011;6493;50.928;7.172;2022-07-30T04:00:15;1.23;;;1.00;;
12848;SDS011;6493;50.928;7.172;2022-07-30T04:05:24;1.03;;;0.83;;
12848;SDS011;6493;50.928;7.172;2022-07-30T04:10:39;1.00;;;0.70;;
12848;SDS011;6493;50.928;7.172;2022-07-30T04:16:10;0.63;;;0.63;;
12848;SDS011;6493;50.928;7.172;2022-07-30T04:21:42;0.70;;;0.70;;
12848;SDS011;6493;50.928;7.172;2022-07-30T04:26:48;1.40;;;0.97;;
12848;SDS011;6493;50.928;7.172;2022-07-30T04:31:55;0.77;;;0.77;;
12848;SDS011;6493;50.928;7.172;2022-07-30T04:37:26;0.67;;;0.67;;
12848;SDS011;6493;50.928;7.172;2022-07-30T04:42:30;0.93;;;0.73;;
12848;SDS011;6493;50.928;7.172;2022-07-30T04:47:41;1.00;;;0.90;;
12848;SDS011;6493;50.928;7.172;2022-07-30T04:53:02;1.77;;;0.97;;
12848;SDS011;6493;50.928;7.172;2022-07-30T04:58:09;0.87;;;0.87;;
12848;SDS011;6493;50.928;7.172;2022-07-30T05:03:16;0.93;;;0.90;;
12848;SDS011;6493;50.928;7.172;2022-07-30T05:08:24;2.07;;;1.30;;
12848;SDS011;6493;50.928;7.172;2022-07-30T05:13:32;0.90;;;0.90;;
12848;SDS011;6493;50.928;7.172;2022-07-30T05:18:43;0.70;;;0.70;;
12848;SDS011;6493;50.928;7.172;2022-07-30T05:23:48;1.03;;;0.93;;
12848;SDS011;6493;50.928;7.172;2022-07-30T05:29:04;0.80;;;0.80;;
12848;SDS011;6493;50.928;7.172;2022-07-30T05:34:20;1.40;;;1.00;;
12848;SDS011;6493;50.928;7.172;2022-07-30T05:39:28;1.50;;;1.37;;
12848;SDS011;6493;50.928;7.172;2022-07-30T05:44:36;1.07;;;1.00;;
12848;SDS011;6493;50.928;7.172;2022-07-30T05:49:41;1.17;;;1.07;;
12848;SDS011;6493;50.928;7.172;2022-07-30T05:54:48;1.20;;;0.93;;
12848;SDS011;6493;50.928;7.172;2022-07-30T06:00:23;1.00;;;0.90;;
12848;SDS011;6493;50.928;7.172;2022-07-30T06:05:30;1.00;;;0.90;;
12848;SDS011;6493;50.928;7.172;2022-07-30T06:10:35;1.20;;;1.10;;
12848;SDS011;6493;50.928;7.172;2022-07-30T06:15:40;1.20;;;1.10;;
12848;SDS011;6493;50.928;7.172;2022-07-30T06:20:45;1.67;;;1.40;;
12848;SDS011;6493;50.928;7.172;2022-07-30T06:26:04;1.37;;;1.00;;
12848;SDS011;6493;50.928;7.172;2022-07-30T06:31:08;1.37;;;1.03;;
12848;SDS011;6493;50.928;7.172;2022-07-30T06:36:13;1.37;;;1.27;;
12848;SDS011;6493;50.928;7.172;2022-07-30T06:41:34;1.30;;;1.20;;
12848;SDS011;6493;50.928;7.172;2022-07-30T06:46:38;1.73;;;1.27;;
12848;SDS011;6493;50.928;7.172;2022-07-30T06:51:46;1.30;;;1.20;;
12848;SDS011;6493;50.928;7.172;2022-07-30T06:56:49;1.90;;;1.60;;
12848;SDS011;6493;50.928;7.172;2022-07-30T07:01:53;1.40;;;1.30;;
12848;SDS011;6493;50.928;7.172;2022-07-30T07:06:59;1.27;;;1.17;;
12848;SDS011;6493;50.928;7.172;2022-07-30T07:12:15;1.97;;;1.40;;
12848;SDS011;6493;50.928;7.172;2022-07-30T07:17:19;1.70;;;1.53;;
12848;SDS011;6493;50.928;7.172;2022-07-30T07:22:40;1.67;;;1.57;;
12848;SDS011;6493;50.928;7.172;2022-07-30T07:27:46;1.47;;;1.37;;
12848;SDS011;6493;50.928;7.172;2022-07-30T07:33:09;1.37;;;1.27;;
12848;SDS011;6493;50.928;7.172;2022-07-30T07:38:18;2.40;;;1.63;;
12848;SDS011;6493;50.928;7.172;2022-07-30T07:43:24;2.57;;;2.07;;
12848;SDS011;6493;50.928;7.172;2022-07-30T07:48:31;2.43;;;2.23;;
12848;SDS011;6493;50.928;7.172;2022-07-30T07:53:52;3.00;;;2.80;;
12848;SDS011;6493;50.928;7.172;2022-07-30T07:59:17;3.47;;;3.17;;
12848;SDS011;6493;50.928;7.172;2022-07-30T08:04:20;3.60;;;3.30;;
12848;SDS011;6493;50.928;7.172;2022-07-30T08:09:44;3.13;;;2.93;;
12848;SDS011;6493;50.928;7.172;2022-07-30T08:15:00;3.30;;;3.03;;
12848;SDS011;6493;50.928;7.172;2022-07-30T08:20:11;2.93;;;2.70;;
12848;SDS011;6493;50.928;7.172;2022-07-30T08:25:17;3.50;;;3.20;;
12848;SDS011;6493;50.928;7.172;2022-07-30T08:30:25;3.63;;;3.20;;
12848;SDS011;6493;50.928;7.172;2022-07-30T08:35:30;3.40;;;3.10;;
12848;SDS011;6493;50.928;7.172;2022-07-30T08:40:36;2.63;;;2.30;;
12848;SDS011;6493;50.928;7.172;2022-07-30T08:45:40;2.53;;;2.33;;
12848;SDS011;6493;50.928;7.172;2022-07-30T08:51:03;2.60;;;2.40;;
12848;SDS011;6493;50.928;7.172;2022-07-30T08:56:08;2.87;;;2.57;;
12848;SDS011;6493;50.928;7.172;2022-07-30T09:01:12;2.37;;;2.17;;
12848;SDS011;6493;50.928;7.172;2022-07-30T09:06:15;2.43;;;2.23;;
12848;SDS011;6493;50.928;7.172;2022-07-30T09:11:21;2.80;;;2.23;;
12848;SDS011;6493;50.928;7.172;2022-07-30T09:16:25;2.50;;;2.17;;
12848;SDS011;6493;50.928;7.172;2022-07-30T09:21:32;2.07;;;1.63;;
12848;SDS011;6493;50.928;7.172;2022-07-30T09:26:59;1.47;;;1.30;;
12848;SDS011;6493;50.928;7.172;2022-07-30T09:32:22;1.83;;;1.40;;
12848;SDS011;6493;50.928;7.172;2022-07-30T09:37:58;2.17;;;1.40;;
12848;SDS011;6493;50.928;7.172;2022-07-30T09:43:27;1.27;;;1.17;;
12848;SDS011;6493;50.928;7.172;2022-07-30T09:48:43;1.83;;;1.60;;
12848;SDS011;6493;50.928;7.172;2022-07-30T09:53:52;1.10;;;1.00;;
12848;SDS011;6493;50.928;7.172;2022-07-30T09:59:00;1.30;;;1.10;;
12848;SDS011;6493;50.928;7.172;2022-07-30T10:04:05;2.13;;;1.50;;
12848;SDS011;6493;50.928;7.172;2022-07-30T10:09:38;1.83;;;1.20;;
12848;SDS011;6493;50.928;7.172;2022-07-30T10:14:50;3.00;;;1.27;;
12848;SDS011;6493;50.928;7.172;2022-07-30T10:19:55;1.27;;;1.07;;
12848;SDS011;6493;50.928;7.172;2022-07-30T10:25:19;1.60;;;1.20;;
12848;SDS011;6493;50.928;7.172;2022-07-30T10:30:49;1.33;;;1.23;;
12848;SDS011;6493;50.928;7.172;2022-07-30T10:35:54;1.80;;;1.40;;
12848;SDS011;6493;50.928;7.172;2022-07-30T10:41:04;2.17;;;1.87;;
12848;SDS011;6493;50.928;7.172;2022-07-30T10:46:19;2.00;;;1.90;;
12848;SDS011;6493;50.928;7.172;2022-07-30T10:51:42;1.50;;;1.40;;
12848;SDS011;6493;50.928;7.172;2022-07-30T10:56:56;1.67;;;1.47;;
12848;SDS011;6493;50.928;7.172;2022-07-30T11:02:08;1.87;;;1.10;;
12848;SDS011;6493;50.928;7.172;2022-07-30T11:07:25;1.30;;;1.10;;
12848;SDS011;6493;50.928;7.172;2022-07-30T11:18:02;1.63;;;1.07;;
12848;SDS011;6493;50.928;7.172;2022-07-30T11:28:42;1.17;;;1.10;;
12848;SDS011;6493;50.928;7.172;2022-07-30T11:33:51;2.20;;;1.50;;
12848;SDS011;6493;50.928;7.172;2022-07-30T11:38:58;1.30;;;1.20;;
12848;SDS011;6493;50.928;7.172;2022-07-30T11:44:26;1.20;;;1.10;;
12848;SDS011;6493;50.928;7.172;2022-07-30T11:49:34;1.73;;;1.17;;
12848;SDS011;6493;50.928;7.172;2022-07-30T11:54:49;1.30;;;1.10;;
12848;SDS011;6493;50.928;7.172;2022-07-30T11:59:54;0.93;;;0.70;;
12848;SDS011;6493;50.928;7.172;2022-07-30T12:05:00;1.20;;;0.80;;
12848;SDS011;6493;50.928;7.172;2022-07-30T12:10:14;0.90;;;0.90;;
12848;SDS011;6493;50.928;7.172;2022-07-30T12:15:29;1.00;;;0.90;;
12848;SDS011;6493;50.928;7.172;2022-07-30T12:20:35;0.80;;;0.80;;
12848;SDS011;6493;50.928;7.172;2022-07-30T12:25:39;1.17;;;0.80;;
12848;SDS011;6493;50.928;7.172;2022-07-30T12:30:52;1.37;;;0.87;;
12848;SDS011;6493;50.928;7.172;2022-07-30T12:35:59;2.60;;;1.00;;
12848;SDS011;6493;50.928;7.172;2022-07-30T12:41:03;0.93;;;0.83;;
12848;SDS011;6493;50.928;7.172;2022-07-30T12:46:07;1.10;;;1.00;;
12848;SDS011;6493;50.928;7.172;2022-07-30T12:51:17;1.67;;;1.13;;
12848;SDS011;6493;50.928;7.172;2022-07-30T12:56:23;1.20;;;0.90;;
12848;SDS011;6493;50.928;7.172;2022-07-30T13:01:37;1.53;;;0.80;;
12848;SDS011;6493;50.928;7.172;2022-07-30T13:06:44;0.70;;;0.60;;
12848;SDS011;6493;50.928;7.172;2022-07-30T13:12:05;0.93;;;0.83;;
12848;SDS011;6493;50.928;7.172;2022-07-30T13:17:13;0.93;;;0.60;;
12848;SDS011;6493;50.928;7.172;2022-07-30T13:22:18;1.20;;;0.90;;
12848;SDS011;6493;50.928;7.172;2022-07-30T13:27:22;0.50;;;0.50;;
12848;SDS011;6493;50.928;7.172;2022-07-30T13:32:26;0.60;;;0.60;;
12848;SDS011;6493;50.928;7.172;2022-07-30T13:37:31;1.00;;;0.80;;
12848;SDS011;6493;50.928;7.172;2022-07-30T13:42:39;0.47;;;0.40;;
12848;SDS011;6493;50.928;7.172;2022-07-30T13:47:43;0.60;;;0.60;;
12848;SDS011;6493;50.928;7.172;2022-07-30T13:52:48;0.50;;;0.50;;
12848;SDS011;6493;50.928;7.172;2022-07-30T13:57:52;0.50;;;0.50;;
12848;SDS011;6493;50.928;7.172;2022-07-30T14:02:55;0.40;;;0.40;;
12848;SDS011;6493;50.928;7.172;2022-07-30T14:08:00;0.60;;;0.60;;
12848;SDS011;6493;50.928;7.172;2022-07-30T14:13:06;0.40;;;0.40;;
12848;SDS011;6493;50.928;7.172;2022-07-30T14:18:15;0.57;;;0.57;;
12848;SDS011;6493;50.928;7.172;2022-07-30T14:23:20;1.33;;;0.80;;
12848;SDS011;6493;50.928;7.172;2022-07-30T14:28:23;0.63;;;0.60;;
12848;SDS011;6493;50.928;7.172;2022-07-30T14:33:27;0.60;;;0.60;;
12848;SDS011;6493;50.928;7.172;2022-07-30T14:38:32;1.10;;;0.70;;
12848;SDS011;6493;50.928;7.172;2022-07-30T14:43:36;0.50;;;0.40;;
12848;SDS011;6493;50.928;7.172;2022-07-30T14:48:39;0.57;;;0.40;;
12848;SDS011;6493;50.928;7.172;2022-07-30T14:53:45;0.40;;;0.40;;
12848;SDS011;6493;50.928;7.172;2022-07-30T14:58:48;0.60;;;0.60;;
12848;SDS011;6493;50.928;7.172;2022-07-30T15:03:52;0.87;;;0.50;;
12848;SDS011;6493;50.928;7.172;2022-07-30T15:08:58;0.50;;;0.50;;
12848;SDS011;6493;50.928;7.172;2022-07-30T15:14:02;0.30;;;0.30;;
12848;SDS011;6493;50.928;7.172;2022-07-30T15:19:06;0.73;;;0.30;;
12848;SDS011;6493;50.928;7.172;2022-07-30T15:24:11;0.40;;;0.30;;
12848;SDS011;6493;50.928;7.172;2022-07-30T15:29:14;0.30;;;0.30;;
12848;SDS011;6493;50.928;7.172;2022-07-30T15:34:18;0.50;;;0.40;;
12848;SDS011;6493;50.928;7.172;2022-07-30T15:39:23;0.47;;;0.30;;
12848;SDS011;6493;50.928;7.172;2022-07-30T15:44:29;0.30;;;0.30;;
12848;SDS011;6493;50.928;7.172;2022-07-30T15:49:33;0.63;;;0.40;;
12848;SDS011;6493;50.928;7.172;2022-07-30T15:54:38;0.30;;;0.30;;
12848;SDS011;6493;50.928;7.172;2022-07-30T15:59:42;0.40;;;0.40;;
12848;SDS011;6493;50.928;7.172;2022-07-30T16:04:46;0.30;;;0.30;;
12848;SDS011;6493;50.928;7.172;2022-07-30T16:09:55;0.87;;;0.40;;
12848;SDS011;6493;50.928;7.172;2022-07-30T16:14:58;0.80;;;0.50;;
12848;SDS011;6493;50.928;7.172;2022-07-30T16:20:02;0.30;;;0.30;;
12848;SDS011;6493;50.928;7.172;2022-07-30T16:25:09;0.57;;;0.47;;
12848;SDS011;6493;50.928;7.172;2022-07-30T16:30:13;0.70;;;0.50;;
12848;SDS011;6493;50.928;7.172;2022-07-30T16:35:16;0.40;;;0.40;;
12848;SDS011;6493;50.928;7.172;2022-07-30T16:40:21;0.30;;;0.30;;
12848;SDS011;6493;50.928;7.172;2022-07-30T16:45:25;0.50;;;0.50;;
12848;SDS011;6493;50.928;7.172;2022-07-30T16:50:29;0.33;;;0.33;;
12848;SDS011;6493;50.928;7.172;2022-07-30T16:55:34;0.27;;;0.20;;
12848;SDS011;6493;50.928;7.172;2022-07-30T17:00:38;0.47;;;0.27;;
12848;SDS011;6493;50.928;7.172;2022-07-30T17:05:42;0.50;;;0.30;;
12848;SDS011;6493;50.928;7.172;2022-07-30T17:10:48;0.43;;;0.30;;
12848;SDS011;6493;50.928;7.172;2022-07-30T17:15:51;0.43;;;0.37;;
12848;SDS011;6493;50.928;7.172;2022-07-30T17:20:55;2.00;;;0.33;;
12848;SDS011;6493;50.928;7.172;2022-07-30T17:26:00;0.80;;;0.57;;
12848;SDS011;6493;50.928;7.172;2022-07-30T17:31:04;0.70;;;0.50;;
12848;SDS011;6493;50.928;7.172;2022-07-30T17:36:08;0.30;;;0.30;;
12848;SDS011;6493;50.928;7.172;2022-07-30T17:41:14;0.60;;;0.37;;
12848;SDS011;6493;50.928;7.172;2022-07-30T17:46:18;0.30;;;0.30;;
12848;SDS011;6493;50.928;7.172;2022-07-30T17:51:22;0.30;;;0.30;;
12848;SDS011;6493;50.928;7.172;2022-07-30T17:56:27;0.33;;;0.33;;
12848;SDS011;6493;50.928;7.172;2022-07-30T18:01:31;0.63;;;0.40;;
12848;SDS011;6493;50.928;7.172;2022-07-30T18:06:34;0.40;;;0.40;;
12848;SDS011;6493;50.928;7.172;2022-07-30T18:11:39;1.13;;;0.50;;
12848;SDS011;6493;50.928;7.172;2022-07-30T18:16:43;0.50;;;0.30;;
12848;SDS011;6493;50.928;7.172;2022-07-30T18:21:47;0.30;;;0.27;;
12848;SDS011;6493;50.928;7.172;2022-07-30T18:26:53;0.30;;;0.30;;
12848;SDS011;6493;50.928;7.172;2022-07-30T18:31:57;0.50;;;0.50;;
12848;SDS011;6493;50.928;7.172;2022-07-30T18:37:01;0.23;;;0.23;;
12848;SDS011;6493;50.928;7.172;2022-07-30T18:42:06;0.30;;;0.30;;
12848;SDS011;6493;50.928;7.172;2022-07-30T18:47:10;0.30;;;0.30;;
12848;SDS011;6493;50.928;7.172;2022-07-30T18:52:14;0.67;;;0.40;;
12848;SDS011;6493;50.928;7.172;2022-07-30T18:57:19;0.37;;;0.37;;
12848;SDS011;6493;50.928;7.172;2022-07-30T19:02:23;0.30;;;0.30;;
12848;SDS011;6493;50.928;7.172;2022-07-30T19:07:27;0.30;;;0.30;;
12848;SDS011;6493;50.928;7.172;2022-07-30T19:12:52;0.30;;;0.30;;
12848;SDS011;6493;50.928;7.172;2022-07-30T19:17:56;0.73;;;0.43;;
12848;SDS011;6493;50.928;7.172;2022-07-30T19:23:00;0.40;;;0.40;;
12848;SDS011;6493;50.928;7.172;2022-07-30T19:28:06;0.57;;;0.40;;
12848;SDS011;6493;50.928;7.172;2022-07-30T19:33:11;0.20;;;0.20;;
12848;SDS011;6493;50.928;7.172;2022-07-30T19:38:16;0.97;;;0.50;;
12848;SDS011;6493;50.928;7.172;2022-07-30T19:43:24;0.60;;;0.40;;
12848;SDS011;6493;50.928;7.172;2022-07-30T19:48:29;0.33;;;0.20;;
12848;SDS011;6493;50.928;7.172;2022-07-30T19:53:35;0.47;;;0.30;;
12848;SDS011;6493;50.928;7.172;2022-07-30T19:58:40;0.40;;;0.40;;
12848;SDS011;6493;50.928;7.172;2022-07-30T20:03:45;0.77;;;0.53;;
12848;SDS011;6493;50.928;7.172;2022-07-30T20:08:49;0.50;;;0.50;;
12848;SDS011;6493;50.928;7.172;2022-07-30T20:13:54;0.83;;;0.47;;
12848;SDS011;6493;50.928;7.172;2022-07-30T20:19:00;0.30;;;0.30;;
12848;SDS011;6493;50.928;7.172;2022-07-30T20:24:05;0.50;;;0.40;;
12848;SDS011;6493;50.928;7.172;2022-07-30T20:29:10;0.60;;;0.50;;
12848;SDS011;6493;50.928;7.172;2022-07-30T20:34:20;0.40;;;0.40;;
12848;SDS011;6493;50.928;7.172;2022-07-30T20:39:28;0.77;;;0.60;;
12848;SDS011;6493;50.928;7.172;2022-07-30T20:44:34;0.50;;;0.50;;
12848;SDS011;6493;50.928;7.172;2022-07-30T20:49:38;0.60;;;0.60;;
12848;SDS011;6493;50.928;7.172;2022-07-30T20:54:42;0.60;;;0.50;;
12848;SDS011;6493;50.928;7.172;2022-07-30T20:59:47;0.60;;;0.60;;
12848;SDS011;6493;50.928;7.172;2022-07-30T21:04:55;0.60;;;0.60;;
12848;SDS011;6493;50.928;7.172;2022-07-30T21:10:00;0.97;;;0.80;;
12848;SDS011;6493;50.928;7.172;2022-07-30T21:15:06;0.50;;;0.50;;
12848;SDS011;6493;50.928;7.172;2022-07-30T21:20:25;0.40;;;0.40;;
12848;SDS011;6493;50.928;7.172;2022-07-30T21:25:29;0.60;;;0.40;;
12848;SDS011;6493;50.928;7.172;2022-07-30T21:30:35;0.50;;;0.50;;
12848;SDS011;6493;50.928;7.172;2022-07-30T21:35:39;0.80;;;0.60;;
12848;SDS011;6493;50.928;7.172;2022-07-30T21:40:43;1.07;;;0.60;;
12848;SDS011;6493;50.928;7.172;2022-07-30T21:45:49;0.50;;;0.50;;
12848;SDS011;6493;50.928;7.172;2022-07-30T21:50:56;0.50;;;0.50;;
12848;SDS011;6493;50.928;7.172;2022-07-30T21:56:00;1.33;;;1.23;;
12848;SDS011;6493;50.928;7.172;2022-07-30T22:01:07;1.43;;;1.33;;
12848;SDS011;6493;50.928;7.172;2022-07-30T22:06:19;2.90;;;2.70;;
12848;SDS011;6493;50.928;7.172;2022-07-30T22:11:24;1.97;;;1.80;;
12848;SDS011;6493;50.928;7.172;2022-07-30T22:16:45;3.50;;;3.20;;
12848;SDS011;6493;50.928;7.172;2022-07-30T22:21:48;8.30;;;7.10;;
12848;SDS011;6493;50.928;7.172;2022-07-30T22:26:52;7.40;;;6.60;;
12848;SDS011;6493;50.928;7.172;2022-07-30T22:31:59;5.60;;;5.10;;
12848;SDS011;6493;50.928;7.172;2022-07-30T22:37:06;2.83;;;2.57;;
12848;SDS011;6493;50.928;7.172;2022-07-30T22:42:14;1.47;;;1.27;;
12848;SDS011;6493;50.928;7.172;2022-07-30T22:47:19;1.43;;;1.30;;
12848;SDS011;6493;50.928;7.172;2022-07-30T22:52:42;0.73;;;0.73;;
12848;SDS011;6493;50.928;7.172;2022-07-30T22:58:00;0.93;;;0.63;;
12848;SDS011;6493;50.928;7.172;2022-07-30T23:03:05;0.77;;;0.60;;
12848;SDS011;6493;50.928;7.172;2022-07-30T23:08:09;0.80;;;0.70;;
12848;SDS011;6493;50.928;7.172;2022-07-30T23:13:13;0.50;;;0.50;;
12848;SDS011;6493;50.928;7.172;2022-07-30T23:18:19;0.50;;;0.50;;
12848;SDS011;6493;50.928;7.172;2022-07-30T23:23:23;0.30;;;0.30;;
12848;SDS011;6493;50.928;7.172;2022-07-30T23:28:31;0.50;;;0.50;;
12848;SDS011;6493;50.928;7.172;2022-07-30T23:33:36;0.50;;;0.50;;
12848;SDS011;6493;50.928;7.172;2022-07-30T23:38:41;0.60;;;0.60;;
12848;SDS011;6493;50.928;7.172;2022-07-30T23:43:47;0.40;;;0.40;;
12848;SDS011;6493;50.928;7.172;2022-07-30T23:48:52;0.60;;;0.60;;
12848;SDS011;6493;50.928;7.172;2022-07-30T23:53:55;0.83;;;0.50;;
12848;SDS011;6493;50.928;7.172;2022-07-30T23:59:00;0.50;;;0.50;;
